sensor_id;sensor_type;location;lat;lon;timestamp;temperature;humidity
26270;DHT22;15937;50.612;6.656;2023-10-19T00:03:43;13.40;99.90
26270;DHT22;15937;50.612;6.656;2023-10-19T00:07:47;13.50;99.90
26270;DHT22;15937;50.612;6.656;2023-10-19T00:11:50;13.40;99.90
26270;DHT22;15937;50.612;6.656;2023-10-19T00:15:53;13.70;99.90
26270;DHT22;15937;50.612;6.656;2023-10-19T00:19:55;14.00;99.90
26270;DHT22;15937;50.612;6.656;2023-10-19T00:24:20;14.10;99.90
26270;DHT22;15937;50.612;6.656;2023-10-19T00:28:27;14.20;99.90
26270;DHT22;15937;50.612;6.656;2023-10-19T00:32:29;14.20;99.90
26270;DHT22;15937;50.612;6.656;2023-10-19T00:36:31;14.30;99.90
26270;DHT22;15937;50.612;6.656;2023-10-19T00:40:33;14.50;99.90
26270;DHT22;15937;50.612;6.656;2023-10-19T00:44:38;14.50;99.90
26270;DHT22;15937;50.612;6.656;2023-10-19T00:48:48;14.50;99.90
26270;DHT22;15937;50.612;6.656;2023-10-19T00:52:55;14.60;99.90
26270;DHT22;15937;50.612;6.656;2023-10-19T00:57:00;14.50;99.90
26270;DHT22;15937;50.612;6.656;2023-10-19T01:01:08;14.50;99.90
26270;DHT22;15937;50.612;6.656;2023-10-19T01:05:12;14.50;99.90
26270;DHT22;15937;50.612;6.656;2023-10-19T01:09:21;14.50;99.90
26270;DHT22;15937;50.612;6.656;2023-10-19T01:13:23;14.40;99.90
26270;DHT22;15937;50.612;6.656;2023-10-19T01:17:36;14.60;99.90
26270;DHT22;15937;50.612;6.656;2023-10-19T01:21:42;14.50;99.90
26270;DHT22;15937;50.612;6.656;2023-10-19T01:25:47;14.50;99.90
26270;DHT22;15937;50.612;6.656;2023-10-19T01:29:55;14.50;99.90
26270;DHT22;15937;50.612;6.656;2023-10-19T01:34:01;14.60;99.90
26270;DHT22;15937;50.612;6.656;2023-10-19T01:38:07;14.50;99.90
26270;DHT22;15937;50.612;6.656;2023-10-19T01:42:10;14.50;99.90
26270;DHT22;15937;50.612;6.656;2023-10-19T01:46:14;14.50;99.90
26270;DHT22;15937;50.612;6.656;2023-10-19T01:50:23;14.60;99.90
26270;DHT22;15937;50.612;6.656;2023-10-19T01:54:25;14.60;99.90
26270;DHT22;15937;50.612;6.656;2023-10-19T01:58:27;14.60;99.90
26270;DHT22;15937;50.612;6.656;2023-10-19T02:02:29;14.60;99.90
26270;DHT22;15937;50.612;6.656;2023-10-19T02:06:34;14.50;99.90
26270;DHT22;15937;50.612;6.656;2023-10-19T02:10:41;14.60;99.90
26270;DHT22;15937;50.612;6.656;2023-10-19T02:14:46;14.60;99.90
26270;DHT22;15937;50.612;6.656;2023-10-19T02:18:49;14.70;99.90
26270;DHT22;15937;50.612;6.656;2023-10-19T02:22:52;14.60;99.90
26270;DHT22;15937;50.612;6.656;2023-10-19T02:26:54;14.60;99.90
26270;DHT22;15937;50.612;6.656;2023-10-19T02:30:58;14.60;99.90
26270;DHT22;15937;50.612;6.656;2023-10-19T02:35:12;14.50;99.90
26270;DHT22;15937;50.612;6.656;2023-10-19T02:39:15;14.60;99.90
26270;DHT22;15937;50.612;6.656;2023-10-19T02:43:20;14.40;99.90
26270;DHT22;15937;50.612;6.656;2023-10-19T02:47:24;14.50;99.90
26270;DHT22;15937;50.612;6.656;2023-10-19T02:51:31;14.40;99.90
26270;DHT22;15937;50.612;6.656;2023-10-19T02:55:33;14.40;99.90
26270;DHT22;15937;50.612;6.656;2023-10-19T02:59:35;14.30;99.90
26270;DHT22;15937;50.612;6.656;2023-10-19T03:03:37;14.20;99.90
26270;DHT22;15937;50.612;6.656;2023-10-19T03:07:41;14.30;99.90
26270;DHT22;15937;50.612;6.656;2023-10-19T03:11:45;14.20;99.90
26270;DHT22;15937;50.612;6.656;2023-10-19T03:15:47;14.10;99.90
26270;DHT22;15937;50.612;6.656;2023-10-19T03:19:50;14.00;99.90
26270;DHT22;15937;50.612;6.656;2023-10-19T03:23:54;14.10;99.90
26270;DHT22;15937;50.612;6.656;2023-10-19T03:27:58;14.10;99.90
26270;DHT22;15937;50.612;6.656;2023-10-19T03:32:07;14.00;99.90
26270;DHT22;15937;50.612;6.656;2023-10-19T03:36:09;14.00;99.90
26270;DHT22;15937;50.612;6.656;2023-10-19T03:40:14;14.10;99.90
26270;DHT22;15937;50.612;6.656;2023-10-19T03:44:26;14.00;99.90
26270;DHT22;15937;50.612;6.656;2023-10-19T03:48:28;13.90;99.90
26270;DHT22;15937;50.612;6.656;2023-10-19T03:52:39;14.00;99.90
26270;DHT22;15937;50.612;6.656;2023-10-19T03:56:42;13.90;99.90
26270;DHT22;15937;50.612;6.656;2023-10-19T04:00:43;13.70;99.90
26270;DHT22;15937;50.612;6.656;2023-10-19T04:04:46;13.70;99.90
26270;DHT22;15937;50.612;6.656;2023-10-19T04:08:50;13.80;99.90
26270;DHT22;15937;50.612;6.656;2023-10-19T04:12:52;13.90;99.90
26270;DHT22;15937;50.612;6.656;2023-10-19T04:16:56;14.00;99.90
26270;DHT22;15937;50.612;6.656;2023-10-19T04:20:58;14.00;99.90
26270;DHT22;15937;50.612;6.656;2023-10-19T04:25:03;14.10;99.90
26270;DHT22;15937;50.612;6.656;2023-10-19T04:29:12;13.90;99.90
26270;DHT22;15937;50.612;6.656;2023-10-19T04:33:18;13.90;99.90
26270;DHT22;15937;50.612;6.656;2023-10-19T04:37:21;13.70;99.90
26270;DHT22;15937;50.612;6.656;2023-10-19T04:41:27;13.60;99.90
26270;DHT22;15937;50.612;6.656;2023-10-19T04:45:30;13.90;99.90
26270;DHT22;15937;50.612;6.656;2023-10-19T04:49:31;13.90;99.90
26270;DHT22;15937;50.612;6.656;2023-10-19T04:53:34;13.80;99.90
26270;DHT22;15937;50.612;6.656;2023-10-19T04:57:37;13.90;99.90
26270;DHT22;15937;50.612;6.656;2023-10-19T05:01:39;13.90;99.90
26270;DHT22;15937;50.612;6.656;2023-10-19T05:05:42;14.10;99.90
26270;DHT22;15937;50.612;6.656;2023-10-19T05:09:45;14.20;99.90
26270;DHT22;15937;50.612;6.656;2023-10-19T05:13:46;14.30;99.90
26270;DHT22;15937;50.612;6.656;2023-10-19T05:17:48;14.30;99.90
26270;DHT22;15937;50.612;6.656;2023-10-19T05:21:50;14.40;99.90
26270;DHT22;15937;50.612;6.656;2023-10-19T05:25:58;14.40;99.90
26270;DHT22;15937;50.612;6.656;2023-10-19T05:30:01;14.50;99.90
26270;DHT22;15937;50.612;6.656;2023-10-19T05:34:04;14.40;99.90
26270;DHT22;15937;50.612;6.656;2023-10-19T05:38:09;14.40;99.90
26270;DHT22;15937;50.612;6.656;2023-10-19T05:42:11;14.40;99.90
26270;DHT22;15937;50.612;6.656;2023-10-19T05:46:14;14.50;99.90
26270;DHT22;15937;50.612;6.656;2023-10-19T05:50:26;14.50;99.90
26270;DHT22;15937;50.612;6.656;2023-10-19T05:54:30;14.50;99.90
26270;DHT22;15937;50.612;6.656;2023-10-19T05:58:32;14.50;99.90
26270;DHT22;15937;50.612;6.656;2023-10-19T06:02:37;14.50;99.90
26270;DHT22;15937;50.612;6.656;2023-10-19T06:06:39;14.50;99.90
26270;DHT22;15937;50.612;6.656;2023-10-19T06:10:42;14.50;99.90
26270;DHT22;15937;50.612;6.656;2023-10-19T06:14:44;14.50;99.90
26270;DHT22;15937;50.612;6.656;2023-10-19T06:18:46;14.50;99.90
26270;DHT22;15937;50.612;6.656;2023-10-19T06:22:52;14.50;99.90
26270;DHT22;15937;50.612;6.656;2023-10-19T06:26:55;14.40;99.90
26270;DHT22;15937;50.612;6.656;2023-10-19T06:30:57;14.50;99.90
26270;DHT22;15937;50.612;6.656;2023-10-19T06:34:59;14.50;99.90
26270;DHT22;15937;50.612;6.656;2023-10-19T06:39:01;14.50;99.90
26270;DHT22;15937;50.612;6.656;2023-10-19T06:43:08;14.50;99.90
26270;DHT22;15937;50.612;6.656;2023-10-19T06:47:10;14.50;99.90
26270;DHT22;15937;50.612;6.656;2023-10-19T06:51:12;14.50;99.90
26270;DHT22;15937;50.612;6.656;2023-10-19T06:55:14;14.50;99.90
26270;DHT22;15937;50.612;6.656;2023-10-19T06:59:18;14.60;99.90
26270;DHT22;15937;50.612;6.656;2023-10-19T07:03:20;14.60;99.90
26270;DHT22;15937;50.612;6.656;2023-10-19T07:07:21;14.60;99.90
26270;DHT22;15937;50.612;6.656;2023-10-19T07:11:23;14.60;99.90
26270;DHT22;15937;50.612;6.656;2023-10-19T07:15:27;14.70;99.90
26270;DHT22;15937;50.612;6.656;2023-10-19T07:19:33;14.70;99.90
26270;DHT22;15937;50.612;6.656;2023-10-19T07:23:35;14.70;99.90
26270;DHT22;15937;50.612;6.656;2023-10-19T07:27:39;14.70;99.90
26270;DHT22;15937;50.612;6.656;2023-10-19T07:31:44;14.80;99.90
26270;DHT22;15937;50.612;6.656;2023-10-19T07:35:46;14.90;99.90
26270;DHT22;15937;50.612;6.656;2023-10-19T07:39:49;14.90;99.90
26270;DHT22;15937;50.612;6.656;2023-10-19T07:43:54;15.00;99.90
26270;DHT22;15937;50.612;6.656;2023-10-19T07:47:57;15.20;99.90
26270;DHT22;15937;50.612;6.656;2023-10-19T07:51:59;15.30;99.90
26270;DHT22;15937;50.612;6.656;2023-10-19T07:56:02;15.40;99.90
26270;DHT22;15937;50.612;6.656;2023-10-19T08:00:05;15.40;99.90
26270;DHT22;15937;50.612;6.656;2023-10-19T08:04:13;15.50;99.90
26270;DHT22;15937;50.612;6.656;2023-10-19T08:08:16;15.60;99.90
26270;DHT22;15937;50.612;6.656;2023-10-19T08:12:17;15.80;99.90
26270;DHT22;15937;50.612;6.656;2023-10-19T08:16:21;15.70;99.90
26270;DHT22;15937;50.612;6.656;2023-10-19T08:20:23;15.80;99.90
26270;DHT22;15937;50.612;6.656;2023-10-19T08:24:27;15.90;99.90
26270;DHT22;15937;50.612;6.656;2023-10-19T08:28:31;16.10;99.90
26270;DHT22;15937;50.612;6.656;2023-10-19T08:32:34;16.10;99.90
26270;DHT22;15937;50.612;6.656;2023-10-19T08:36:37;16.20;99.90
26270;DHT22;15937;50.612;6.656;2023-10-19T08:40:39;16.30;99.90
26270;DHT22;15937;50.612;6.656;2023-10-19T08:44:41;16.40;99.90
26270;DHT22;15937;50.612;6.656;2023-10-19T08:48:43;16.50;99.90
26270;DHT22;15937;50.612;6.656;2023-10-19T08:52:45;16.40;99.90
26270;DHT22;15937;50.612;6.656;2023-10-19T08:56:50;16.30;99.90
26270;DHT22;15937;50.612;6.656;2023-10-19T09:00:53;16.30;99.90
26270;DHT22;15937;50.612;6.656;2023-10-19T09:04:59;16.30;99.90
26270;DHT22;15937;50.612;6.656;2023-10-19T09:09:02;16.50;99.90
26270;DHT22;15937;50.612;6.656;2023-10-19T09:13:08;16.60;99.90
26270;DHT22;15937;50.612;6.656;2023-10-19T09:17:11;16.90;99.90
26270;DHT22;15937;50.612;6.656;2023-10-19T09:21:16;16.80;99.90
26270;DHT22;15937;50.612;6.656;2023-10-19T09:25:29;16.80;99.90
26270;DHT22;15937;50.612;6.656;2023-10-19T09:29:31;16.80;99.90
26270;DHT22;15937;50.612;6.656;2023-10-19T09:33:33;16.90;99.90
26270;DHT22;15937;50.612;6.656;2023-10-19T09:37:36;16.90;99.90
26270;DHT22;15937;50.612;6.656;2023-10-19T09:41:39;16.80;99.90
26270;DHT22;15937;50.612;6.656;2023-10-19T09:45:42;16.70;99.90
26270;DHT22;15937;50.612;6.656;2023-10-19T09:49:51;16.70;99.90
26270;DHT22;15937;50.612;6.656;2023-10-19T09:57:57;16.70;99.90
26270;DHT22;15937;50.612;6.656;2023-10-19T10:06:11;16.80;99.90
26270;DHT22;15937;50.612;6.656;2023-10-19T10:10:16;16.90;99.90
26270;DHT22;15937;50.612;6.656;2023-10-19T10:14:24;16.80;99.90
26270;DHT22;15937;50.612;6.656;2023-10-19T10:18:30;17.00;99.90
26270;DHT22;15937;50.612;6.656;2023-10-19T10:22:32;17.00;99.90
26270;DHT22;15937;50.612;6.656;2023-10-19T10:26:57;17.10;99.90
26270;DHT22;15937;50.612;6.656;2023-10-19T10:31:07;17.10;99.90
26270;DHT22;15937;50.612;6.656;2023-10-19T10:35:10;17.10;99.90
26270;DHT22;15937;50.612;6.656;2023-10-19T10:39:11;17.20;99.90
26270;DHT22;15937;50.612;6.656;2023-10-19T10:43:18;17.20;99.90
26270;DHT22;15937;50.612;6.656;2023-10-19T10:47:21;17.20;99.90
26270;DHT22;15937;50.612;6.656;2023-10-19T10:51:27;17.20;99.90
26270;DHT22;15937;50.612;6.656;2023-10-19T10:55:32;17.20;99.90
26270;DHT22;15937;50.612;6.656;2023-10-19T10:59:35;17.10;99.90
26270;DHT22;15937;50.612;6.656;2023-10-19T11:03:37;17.20;99.90
26270;DHT22;15937;50.612;6.656;2023-10-19T11:07:39;17.20;99.90
26270;DHT22;15937;50.612;6.656;2023-10-19T11:11:42;17.10;99.90
26270;DHT22;15937;50.612;6.656;2023-10-19T11:15:53;17.10;99.90
26270;DHT22;15937;50.612;6.656;2023-10-19T11:19:59;17.10;99.90
26270;DHT22;15937;50.612;6.656;2023-10-19T11:24:02;17.00;99.90
26270;DHT22;15937;50.612;6.656;2023-10-19T11:28:04;17.10;99.90
26270;DHT22;15937;50.612;6.656;2023-10-19T11:32:18;17.10;99.90
26270;DHT22;15937;50.612;6.656;2023-10-19T11:36:21;17.20;99.90
26270;DHT22;15937;50.612;6.656;2023-10-19T11:40:25;17.20;99.90
26270;DHT22;15937;50.612;6.656;2023-10-19T11:44:27;17.20;99.90
26270;DHT22;15937;50.612;6.656;2023-10-19T11:48:29;17.10;99.90
26270;DHT22;15937;50.612;6.656;2023-10-19T11:52:32;17.10;99.90
26270;DHT22;15937;50.612;6.656;2023-10-19T11:56:35;17.00;99.90
26270;DHT22;15937;50.612;6.656;2023-10-19T12:00:37;16.90;99.90
26270;DHT22;15937;50.612;6.656;2023-10-19T12:04:40;16.90;99.90
26270;DHT22;15937;50.612;6.656;2023-10-19T12:08:44;16.80;99.90
26270;DHT22;15937;50.612;6.656;2023-10-19T12:12:46;16.80;99.90
26270;DHT22;15937;50.612;6.656;2023-10-19T12:17:02;16.70;99.90
26270;DHT22;15937;50.612;6.656;2023-10-19T12:21:06;16.70;99.90
26270;DHT22;15937;50.612;6.656;2023-10-19T12:25:13;16.70;99.90
26270;DHT22;15937;50.612;6.656;2023-10-19T12:29:16;16.70;99.90
26270;DHT22;15937;50.612;6.656;2023-10-19T12:33:22;16.60;99.90
26270;DHT22;15937;50.612;6.656;2023-10-19T12:37:24;16.60;99.90
26270;DHT22;15937;50.612;6.656;2023-10-19T12:41:28;16.60;99.90
26270;DHT22;15937;50.612;6.656;2023-10-19T12:45:31;16.50;99.90
26270;DHT22;15937;50.612;6.656;2023-10-19T12:49:41;16.40;99.90
26270;DHT22;15937;50.612;6.656;2023-10-19T12:53:44;16.30;99.90
26270;DHT22;15937;50.612;6.656;2023-10-19T12:57:49;16.30;99.90
26270;DHT22;15937;50.612;6.656;2023-10-19T13:01:55;16.20;99.90
26270;DHT22;15937;50.612;6.656;2023-10-19T13:06:00;16.20;99.90
26270;DHT22;15937;50.612;6.656;2023-10-19T13:10:06;16.10;99.90
26270;DHT22;15937;50.612;6.656;2023-10-19T13:14:10;16.00;99.90
26270;DHT22;15937;50.612;6.656;2023-10-19T13:18:13;16.00;99.90
26270;DHT22;15937;50.612;6.656;2023-10-19T13:22:22;15.90;99.90
26270;DHT22;15937;50.612;6.656;2023-10-19T13:26:24;15.90;99.90
26270;DHT22;15937;50.612;6.656;2023-10-19T13:30:29;15.90;99.90
26270;DHT22;15937;50.612;6.656;2023-10-19T13:34:32;15.90;99.90
26270;DHT22;15937;50.612;6.656;2023-10-19T13:38:34;16.00;99.90
26270;DHT22;15937;50.612;6.656;2023-10-19T13:42:36;16.00;99.90
26270;DHT22;15937;50.612;6.656;2023-10-19T13:46:38;16.00;99.90
26270;DHT22;15937;50.612;6.656;2023-10-19T13:50:41;16.00;99.90
26270;DHT22;15937;50.612;6.656;2023-10-19T13:54:46;16.10;99.90
26270;DHT22;15937;50.612;6.656;2023-10-19T13:58:51;16.00;99.90
26270;DHT22;15937;50.612;6.656;2023-10-19T14:02:56;16.00;99.90
26270;DHT22;15937;50.612;6.656;2023-10-19T14:06:59;16.10;99.90
26270;DHT22;15937;50.612;6.656;2023-10-19T14:11:02;15.90;99.90
26270;DHT22;15937;50.612;6.656;2023-10-19T14:15:04;16.10;99.90
26270;DHT22;15937;50.612;6.656;2023-10-19T14:19:07;16.10;99.90
26270;DHT22;15937;50.612;6.656;2023-10-19T14:23:10;16.20;99.90
26270;DHT22;15937;50.612;6.656;2023-10-19T14:27:13;16.40;99.90
26270;DHT22;15937;50.612;6.656;2023-10-19T14:31:16;16.50;99.90
26270;DHT22;15937;50.612;6.656;2023-10-19T14:35:22;16.70;99.90
26270;DHT22;15937;50.612;6.656;2023-10-19T14:39:24;16.70;99.90
26270;DHT22;15937;50.612;6.656;2023-10-19T14:43:26;16.90;99.90
26270;DHT22;15937;50.612;6.656;2023-10-19T14:47:31;16.90;99.90
26270;DHT22;15937;50.612;6.656;2023-10-19T14:51:33;17.10;99.90
26270;DHT22;15937;50.612;6.656;2023-10-19T14:55:35;17.10;99.90
26270;DHT22;15937;50.612;6.656;2023-10-19T14:59:39;17.10;99.90
26270;DHT22;15937;50.612;6.656;2023-10-19T15:03:43;16.90;99.90
26270;DHT22;15937;50.612;6.656;2023-10-19T15:07:51;17.00;99.90
26270;DHT22;15937;50.612;6.656;2023-10-19T15:11:58;17.10;99.90
26270;DHT22;15937;50.612;6.656;2023-10-19T15:16:07;17.30;99.90
26270;DHT22;15937;50.612;6.656;2023-10-19T15:20:09;17.30;99.90
26270;DHT22;15937;50.612;6.656;2023-10-19T15:24:12;17.30;99.90
26270;DHT22;15937;50.612;6.656;2023-10-19T15:28:14;17.30;99.90
26270;DHT22;15937;50.612;6.656;2023-10-19T15:32:16;17.20;99.90
26270;DHT22;15937;50.612;6.656;2023-10-19T15:36:19;17.00;99.90
26270;DHT22;15937;50.612;6.656;2023-10-19T15:40:21;16.90;99.90
26270;DHT22;15937;50.612;6.656;2023-10-19T15:44:23;16.90;99.90
26270;DHT22;15937;50.612;6.656;2023-10-19T15:48:25;16.90;99.90
26270;DHT22;15937;50.612;6.656;2023-10-19T15:52:28;16.80;99.90
26270;DHT22;15937;50.612;6.656;2023-10-19T15:56:29;16.70;99.90
26270;DHT22;15937;50.612;6.656;2023-10-19T16:00:32;16.60;99.90
26270;DHT22;15937;50.612;6.656;2023-10-19T16:04:34;16.50;99.90
26270;DHT22;15937;50.612;6.656;2023-10-19T16:08:36;16.50;99.90
26270;DHT22;15937;50.612;6.656;2023-10-19T16:12:41;16.40;99.90
26270;DHT22;15937;50.612;6.656;2023-10-19T16:16:47;16.40;99.90
26270;DHT22;15937;50.612;6.656;2023-10-19T16:20:50;16.40;99.90
26270;DHT22;15937;50.612;6.656;2023-10-19T16:24:51;16.20;99.90
26270;DHT22;15937;50.612;6.656;2023-10-19T16:28:53;16.10;99.90
26270;DHT22;15937;50.612;6.656;2023-10-19T16:32:56;16.00;99.90
26270;DHT22;15937;50.612;6.656;2023-10-19T16:37:01;15.90;99.90
26270;DHT22;15937;50.612;6.656;2023-10-19T16:41:03;15.80;99.90
26270;DHT22;15937;50.612;6.656;2023-10-19T16:45:07;15.70;99.90
26270;DHT22;15937;50.612;6.656;2023-10-19T16:49:12;15.70;99.90
26270;DHT22;15937;50.612;6.656;2023-10-19T16:53:16;15.60;99.90
26270;DHT22;15937;50.612;6.656;2023-10-19T16:57:18;15.60;99.90
26270;DHT22;15937;50.612;6.656;2023-10-19T17:01:20;15.50;99.90
26270;DHT22;15937;50.612;6.656;2023-10-19T17:05:23;15.40;99.90
26270;DHT22;15937;50.612;6.656;2023-10-19T17:09:25;15.30;99.90
26270;DHT22;15937;50.612;6.656;2023-10-19T17:13:28;15.20;99.90
26270;DHT22;15937;50.612;6.656;2023-10-19T17:17:29;15.20;99.90
26270;DHT22;15937;50.612;6.656;2023-10-19T17:21:31;15.20;99.90
26270;DHT22;15937;50.612;6.656;2023-10-19T17:25:34;15.10;99.90
26270;DHT22;15937;50.612;6.656;2023-10-19T17:29:40;15.10;99.90
26270;DHT22;15937;50.612;6.656;2023-10-19T17:33:41;15.00;99.90
26270;DHT22;15937;50.612;6.656;2023-10-19T17:37:43;15.10;99.90
26270;DHT22;15937;50.612;6.656;2023-10-19T17:42:47;15.10;99.90
26270;DHT22;15937;50.612;6.656;2023-10-19T17:46:49;15.00;99.90
26270;DHT22;15937;50.612;6.656;2023-10-19T17:50:54;15.00;99.90
26270;DHT22;15937;50.612;6.656;2023-10-19T17:54:55;15.00;99.90
26270;DHT22;15937;50.612;6.656;2023-10-19T17:58:58;15.00;99.90
26270;DHT22;15937;50.612;6.656;2023-10-19T18:03:00;15.00;99.90
26270;DHT22;15937;50.612;6.656;2023-10-19T18:07:02;14.90;99.90
26270;DHT22;15937;50.612;6.656;2023-10-19T18:11:04;14.90;99.90
26270;DHT22;15937;50.612;6.656;2023-10-19T18:15:06;15.10;99.90
26270;DHT22;15937;50.612;6.656;2023-10-19T18:19:12;15.20;99.90
26270;DHT22;15937;50.612;6.656;2023-10-19T18:23:14;15.10;99.90
26270;DHT22;15937;50.612;6.656;2023-10-19T19:09:42;15.20;99.90
26270;DHT22;15937;50.612;6.656;2023-10-19T19:13:45;15.30;99.90
26270;DHT22;15937;50.612;6.656;2023-10-19T19:17:47;15.20;99.90
26270;DHT22;15937;50.612;6.656;2023-10-19T19:21:49;15.20;99.90
26270;DHT22;15937;50.612;6.656;2023-10-19T19:25:51;15.20;99.90
26270;DHT22;15937;50.612;6.656;2023-10-19T19:29:54;15.20;99.90
26270;DHT22;15937;50.612;6.656;2023-10-19T19:33:57;15.30;99.90
26270;DHT22;15937;50.612;6.656;2023-10-19T19:37:59;15.20;99.90
26270;DHT22;15937;50.612;6.656;2023-10-19T19:42:01;15.30;99.90
26270;DHT22;15937;50.612;6.656;2023-10-19T19:46:05;15.40;99.90
26270;DHT22;15937;50.612;6.656;2023-10-19T19:50:07;15.40;99.90
26270;DHT22;15937;50.612;6.656;2023-10-19T19:54:10;15.30;99.90
26270;DHT22;15937;50.612;6.656;2023-10-19T19:58:15;15.40;99.90
26270;DHT22;15937;50.612;6.656;2023-10-19T20:02:17;15.30;99.90
26270;DHT22;15937;50.612;6.656;2023-10-19T20:06:19;15.40;99.90
26270;DHT22;15937;50.612;6.656;2023-10-19T20:10:21;15.30;99.90
26270;DHT22;15937;50.612;6.656;2023-10-19T20:14:23;15.30;99.90
26270;DHT22;15937;50.612;6.656;2023-10-19T20:18:25;15.40;99.90
26270;DHT22;15937;50.612;6.656;2023-10-19T20:22:28;15.40;99.90
26270;DHT22;15937;50.612;6.656;2023-10-19T20:26:30;15.40;99.90
26270;DHT22;15937;50.612;6.656;2023-10-19T20:30:32;15.30;99.90
26270;DHT22;15937;50.612;6.656;2023-10-19T20:34:35;15.30;99.90
26270;DHT22;15937;50.612;6.656;2023-10-19T20:38:39;15.20;99.90
26270;DHT22;15937;50.612;6.656;2023-10-19T20:42:41;15.20;99.90
26270;DHT22;15937;50.612;6.656;2023-10-19T20:46:45;15.20;99.90
26270;DHT22;15937;50.612;6.656;2023-10-19T20:50:47;15.20;99.90
26270;DHT22;15937;50.612;6.656;2023-10-19T20:54:50;15.20;99.90
26270;DHT22;15937;50.612;6.656;2023-10-19T20:58:52;15.20;99.90
26270;DHT22;15937;50.612;6.656;2023-10-19T21:02:54;15.20;99.90
26270;DHT22;15937;50.612;6.656;2023-10-19T21:06:57;15.20;99.90
26270;DHT22;15937;50.612;6.656;2023-10-19T21:10:58;15.20;99.90
26270;DHT22;15937;50.612;6.656;2023-10-19T21:15:00;15.20;99.90
26270;DHT22;15937;50.612;6.656;2023-10-19T21:19:02;15.20;99.90
26270;DHT22;15937;50.612;6.656;2023-10-19T21:23:06;15.20;99.90
26270;DHT22;15937;50.612;6.656;2023-10-19T21:27:08;15.20;99.90
26270;DHT22;15937;50.612;6.656;2023-10-19T21:31:11;15.10;99.90
26270;DHT22;15937;50.612;6.656;2023-10-19T21:35:14;15.10;99.90
26270;DHT22;15937;50.612;6.656;2023-10-19T21:39:17;15.10;99.90
26270;DHT22;15937;50.612;6.656;2023-10-19T21:43:19;15.00;99.90
26270;DHT22;15937;50.612;6.656;2023-10-19T21:47:21;15.10;99.90
26270;DHT22;15937;50.612;6.656;2023-10-19T21:51:23;15.10;99.90
26270;DHT22;15937;50.612;6.656;2023-10-19T21:55:26;15.00;99.90
26270;DHT22;15937;50.612;6.656;2023-10-19T21:59:28;15.10;99.90
26270;DHT22;15937;50.612;6.656;2023-10-19T22:03:36;15.10;99.90
26270;DHT22;15937;50.612;6.656;2023-10-19T22:07:40;15.10;99.90
26270;DHT22;15937;50.612;6.656;2023-10-19T22:11:42;15.10;99.90
26270;DHT22;15937;50.612;6.656;2023-10-19T22:15:45;15.10;99.90
26270;DHT22;15937;50.612;6.656;2023-10-19T22:19:47;15.00;99.90
26270;DHT22;15937;50.612;6.656;2023-10-19T22:23:49;15.00;99.90
26270;DHT22;15937;50.612;6.656;2023-10-19T22:27:51;15.10;99.90
26270;DHT22;15937;50.612;6.656;2023-10-19T22:31:54;15.10;99.90
26270;DHT22;15937;50.612;6.656;2023-10-19T22:35:57;15.10;99.90
26270;DHT22;15937;50.612;6.656;2023-10-19T22:39:59;15.20;99.90
26270;DHT22;15937;50.612;6.656;2023-10-19T22:44:02;15.10;99.90
26270;DHT22;15937;50.612;6.656;2023-10-19T22:48:04;15.20;99.90
26270;DHT22;15937;50.612;6.656;2023-10-19T22:52:09;15.20;99.90
26270;DHT22;15937;50.612;6.656;2023-10-19T22:56:11;15.20;99.90
26270;DHT22;15937;50.612;6.656;2023-10-19T23:00:13;15.20;99.90
26270;DHT22;15937;50.612;6.656;2023-10-19T23:04:16;15.20;99.90
26270;DHT22;15937;50.612;6.656;2023-10-19T23:08:18;15.20;99.90
26270;DHT22;15937;50.612;6.656;2023-10-19T23:12:21;15.30;99.90
26270;DHT22;15937;50.612;6.656;2023-10-19T23:16:25;15.30;99.90
26270;DHT22;15937;50.612;6.656;2023-10-19T23:20:32;15.20;99.90
26270;DHT22;15937;50.612;6.656;2023-10-19T23:24:34;15.30;99.90
26270;DHT22;15937;50.612;6.656;2023-10-19T23:28:36;15.30;99.90
26270;DHT22;15937;50.612;6.656;2023-10-19T23:32:39;15.30;99.90
26270;DHT22;15937;50.612;6.656;2023-10-19T23:36:41;15.30;99.90
26270;DHT22;15937;50.612;6.656;2023-10-19T23:40:43;15.40;99.90
26270;DHT22;15937;50.612;6.656;2023-10-19T23:44:45;15.40;99.90
26270;DHT22;15937;50.612;6.656;2023-10-19T23:48:48;15.40;99.90
26270;DHT22;15937;50.612;6.656;2023-10-19T23:52:50;15.50;99.90
26270;DHT22;15937;50.612;6.656;2023-10-19T23:56:54;15.50;99.90
